sensor_id;sensor_type;location;lat;lon;timestamp;P1;durP1;ratioP1;P2;durP2;ratioP2
10120;SDS011;5100;45.176;5.714;2023-06-19T00:02:21;5.22;;;3.60;;
10120;SDS011;5100;45.176;5.714;2023-06-19T00:04:48;3.22;;;2.90;;
10120;SDS011;5100;45.176;5.714;2023-06-19T00:07:13;3.00;;;2.65;;
10120;SDS011;5100;45.176;5.714;2023-06-19T00:09:39;3.90;;;3.53;;
10120;SDS011;5100;45.176;5.714;2023-06-19T00:12:06;5.80;;;3.35;;
10120;SDS011;5100;45.176;5.714;2023-06-19T00:14:32;4.97;;;3.20;;
10120;SDS011;5100;45.176;5.714;2023-06-19T00:16:58;2.90;;;2.70;;
10120;SDS011;5100;45.176;5.714;2023-06-19T00:19:26;3.10;;;2.90;;
10120;SDS011;5100;45.176;5.714;2023-06-19T00:21:52;3.05;;;2.85;;
10120;SDS011;5100;45.176;5.714;2023-06-19T00:24:22;3.97;;;2.87;;
10120;SDS011;5100;45.176;5.714;2023-06-19T00:26:49;3.60;;;3.30;;
10120;SDS011;5100;45.176;5.714;2023-06-19T00:29:15;2.70;;;2.50;;
10120;SDS011;5100;45.176;5.714;2023-06-19T00:31:41;5.40;;;3.25;;
10120;SDS011;5100;45.176;5.714;2023-06-19T00:34:07;4.90;;;3.17;;
10120;SDS011;5100;45.176;5.714;2023-06-19T00:36:33;3.45;;;3.20;;
10120;SDS011;5100;45.176;5.714;2023-06-19T00:39:06;3.87;;;3.17;;
10120;SDS011;5100;45.176;5.714;2023-06-19T00:41:35;2.90;;;2.70;;
10120;SDS011;5100;45.176;5.714;2023-06-19T00:44:01;3.10;;;2.80;;
10120;SDS011;5100;45.176;5.714;2023-06-19T00:46:27;5.95;;;2.90;;
10120;SDS011;5100;45.176;5.714;2023-06-19T00:48:54;5.15;;;3.40;;
10120;SDS011;5100;45.176;5.714;2023-06-19T00:51:20;3.97;;;3.22;;
10120;SDS011;5100;45.176;5.714;2023-06-19T00:53:46;3.22;;;2.92;;
10120;SDS011;5100;45.176;5.714;2023-06-19T00:56:13;3.25;;;2.90;;
10120;SDS011;5100;45.176;5.714;2023-06-19T00:58:40;3.28;;;2.97;;
10120;SDS011;5100;45.176;5.714;2023-06-19T01:01:06;5.57;;;2.92;;
10120;SDS011;5100;45.176;5.714;2023-06-19T01:03:33;3.20;;;2.90;;
10120;SDS011;5100;45.176;5.714;2023-06-19T01:05:59;6.35;;;3.33;;
10120;SDS011;5100;45.176;5.714;2023-06-19T01:11:15;5.18;;;3.28;;
10120;SDS011;5100;45.176;5.714;2023-06-19T01:13:49;3.10;;;2.90;;
10120;SDS011;5100;45.176;5.714;2023-06-19T01:16:26;3.35;;;2.92;;
10120;SDS011;5100;45.176;5.714;2023-06-19T01:18:53;4.07;;;3.33;;
10120;SDS011;5100;45.176;5.714;2023-06-19T01:21:20;2.75;;;2.53;;
10120;SDS011;5100;45.176;5.714;2023-06-19T01:23:46;3.30;;;3.00;;
10120;SDS011;5100;45.176;5.714;2023-06-19T01:26:12;5.22;;;3.25;;
10120;SDS011;5100;45.176;5.714;2023-06-19T01:28:40;2.92;;;2.70;;
10120;SDS011;5100;45.176;5.714;2023-06-19T01:31:11;3.25;;;2.97;;
10120;SDS011;5100;45.176;5.714;2023-06-19T01:33:40;2.72;;;2.53;;
10120;SDS011;5100;45.176;5.714;2023-06-19T01:36:10;3.83;;;3.03;;
10120;SDS011;5100;45.176;5.714;2023-06-19T01:38:37;3.75;;;2.90;;
10120;SDS011;5100;45.176;5.714;2023-06-19T01:41:04;2.95;;;2.75;;
10120;SDS011;5100;45.176;5.714;2023-06-19T01:43:33;3.03;;;2.80;;
10120;SDS011;5100;45.176;5.714;2023-06-19T01:46:00;3.10;;;2.90;;
10120;SDS011;5100;45.176;5.714;2023-06-19T01:48:26;3.37;;;3.00;;
10120;SDS011;5100;45.176;5.714;2023-06-19T01:50:53;4.35;;;3.12;;
10120;SDS011;5100;45.176;5.714;2023-06-19T01:53:19;3.47;;;3.05;;
10120;SDS011;5100;45.176;5.714;2023-06-19T01:55:45;3.25;;;2.97;;
10120;SDS011;5100;45.176;5.714;2023-06-19T01:58:11;3.72;;;2.85;;
10120;SDS011;5100;45.176;5.714;2023-06-19T02:00:37;3.10;;;2.83;;
10120;SDS011;5100;45.176;5.714;2023-06-19T02:03:04;3.33;;;3.03;;
10120;SDS011;5100;45.176;5.714;2023-06-19T02:05:30;3.00;;;2.70;;
10120;SDS011;5100;45.176;5.714;2023-06-19T02:07:57;3.00;;;2.80;;
10120;SDS011;5100;45.176;5.714;2023-06-19T02:10:23;3.33;;;3.12;;
10120;SDS011;5100;45.176;5.714;2023-06-19T02:12:49;3.45;;;3.15;;
10120;SDS011;5100;45.176;5.714;2023-06-19T02:15:15;4.40;;;3.60;;
10120;SDS011;5100;45.176;5.714;2023-06-19T02:17:41;3.50;;;2.83;;
10120;SDS011;5100;45.176;5.714;2023-06-19T02:20:08;3.33;;;2.97;;
10120;SDS011;5100;45.176;5.714;2023-06-19T02:22:39;3.25;;;2.95;;
10120;SDS011;5100;45.176;5.714;2023-06-19T02:25:06;3.70;;;3.25;;
10120;SDS011;5100;45.176;5.714;2023-06-19T02:27:32;3.45;;;2.95;;
10120;SDS011;5100;45.176;5.714;2023-06-19T02:29:58;5.72;;;3.30;;
10120;SDS011;5100;45.176;5.714;2023-06-19T02:32:24;3.45;;;3.15;;
10120;SDS011;5100;45.176;5.714;2023-06-19T02:34:51;3.40;;;3.10;;
10120;SDS011;5100;45.176;5.714;2023-06-19T02:37:17;3.50;;;3.20;;
10120;SDS011;5100;45.176;5.714;2023-06-19T02:39:43;3.03;;;2.80;;
10120;SDS011;5100;45.176;5.714;2023-06-19T02:42:09;3.53;;;3.20;;
10120;SDS011;5100;45.176;5.714;2023-06-19T02:44:36;4.22;;;2.83;;
10120;SDS011;5100;45.176;5.714;2023-06-19T02:47:02;3.25;;;3.00;;
10120;SDS011;5100;45.176;5.714;2023-06-19T02:49:28;3.80;;;3.08;;
10120;SDS011;5100;45.176;5.714;2023-06-19T02:51:54;3.75;;;3.03;;
10120;SDS011;5100;45.176;5.714;2023-06-19T02:54:20;3.40;;;3.10;;
10120;SDS011;5100;45.176;5.714;2023-06-19T02:56:46;3.75;;;3.45;;
10120;SDS011;5100;45.176;5.714;2023-06-19T02:59:16;5.93;;;3.25;;
10120;SDS011;5100;45.176;5.714;2023-06-19T03:01:42;3.00;;;2.80;;
10120;SDS011;5100;45.176;5.714;2023-06-19T03:04:11;3.85;;;3.20;;
10120;SDS011;5100;45.176;5.714;2023-06-19T03:06:38;4.53;;;2.92;;
10120;SDS011;5100;45.176;5.714;2023-06-19T03:09:05;3.15;;;2.83;;
10120;SDS011;5100;45.176;5.714;2023-06-19T03:11:39;3.05;;;2.75;;
10120;SDS011;5100;45.176;5.714;2023-06-19T03:14:05;2.83;;;2.60;;
10120;SDS011;5100;45.176;5.714;2023-06-19T03:16:35;3.47;;;3.15;;
10120;SDS011;5100;45.176;5.714;2023-06-19T03:19:02;3.35;;;3.05;;
10120;SDS011;5100;45.176;5.714;2023-06-19T03:21:28;3.47;;;2.80;;
10120;SDS011;5100;45.176;5.714;2023-06-19T03:23:54;3.15;;;2.85;;
10120;SDS011;5100;45.176;5.714;2023-06-19T03:26:21;4.12;;;3.00;;
10120;SDS011;5100;45.176;5.714;2023-06-19T03:28:48;3.67;;;3.37;;
10120;SDS011;5100;45.176;5.714;2023-06-19T03:31:17;3.53;;;3.22;;
10120;SDS011;5100;45.176;5.714;2023-06-19T03:33:43;3.35;;;3.05;;
10120;SDS011;5100;45.176;5.714;2023-06-19T03:36:09;3.40;;;3.00;;
10120;SDS011;5100;45.176;5.714;2023-06-19T03:38:36;3.42;;;3.12;;
10120;SDS011;5100;45.176;5.714;2023-06-19T03:41:03;4.00;;;3.12;;
10120;SDS011;5100;45.176;5.714;2023-06-19T03:43:29;3.15;;;2.95;;
10120;SDS011;5100;45.176;5.714;2023-06-19T03:45:56;5.57;;;3.12;;
10120;SDS011;5100;45.176;5.714;2023-06-19T03:48:22;3.65;;;3.35;;
10120;SDS011;5100;45.176;5.714;2023-06-19T03:50:48;4.15;;;2.87;;
10120;SDS011;5100;45.176;5.714;2023-06-19T03:53:14;4.65;;;3.10;;
10120;SDS011;5100;45.176;5.714;2023-06-19T03:55:40;3.92;;;3.15;;
10120;SDS011;5100;45.176;5.714;2023-06-19T03:58:08;3.95;;;3.30;;
10120;SDS011;5100;45.176;5.714;2023-06-19T04:00:34;3.10;;;2.90;;
10120;SDS011;5100;45.176;5.714;2023-06-19T04:03:00;3.17;;;2.92;;
10120;SDS011;5100;45.176;5.714;2023-06-19T04:05:27;3.37;;;2.70;;
10120;SDS011;5100;45.176;5.714;2023-06-19T04:07:54;3.15;;;2.80;;
10120;SDS011;5100;45.176;5.714;2023-06-19T04:10:20;3.10;;;2.90;;
10120;SDS011;5100;45.176;5.714;2023-06-19T04:12:46;4.10;;;3.08;;
10120;SDS011;5100;45.176;5.714;2023-06-19T04:15:13;6.22;;;3.62;;
10120;SDS011;5100;45.176;5.714;2023-06-19T04:17:39;3.10;;;2.90;;
10120;SDS011;5100;45.176;5.714;2023-06-19T04:20:05;3.47;;;3.12;;
10120;SDS011;5100;45.176;5.714;2023-06-19T04:22:37;3.40;;;3.10;;
10120;SDS011;5100;45.176;5.714;2023-06-19T04:25:07;3.20;;;2.90;;
10120;SDS011;5100;45.176;5.714;2023-06-19T04:27:34;3.20;;;2.90;;
10120;SDS011;5100;45.176;5.714;2023-06-19T04:30:00;2.90;;;2.65;;
10120;SDS011;5100;45.176;5.714;2023-06-19T04:32:28;6.20;;;3.30;;
10120;SDS011;5100;45.176;5.714;2023-06-19T04:34:54;10.77;;;3.55;;
10120;SDS011;5100;45.176;5.714;2023-06-19T04:37:20;3.53;;;3.22;;
10120;SDS011;5100;45.176;5.714;2023-06-19T04:39:46;3.55;;;3.25;;
10120;SDS011;5100;45.176;5.714;2023-06-19T04:42:16;3.70;;;3.17;;
10120;SDS011;5100;45.176;5.714;2023-06-19T04:44:45;3.10;;;2.90;;
10120;SDS011;5100;45.176;5.714;2023-06-19T04:47:16;3.87;;;3.17;;
10120;SDS011;5100;45.176;5.714;2023-06-19T04:49:43;3.85;;;3.10;;
10120;SDS011;5100;45.176;5.714;2023-06-19T04:52:09;3.00;;;2.80;;
10120;SDS011;5100;45.176;5.714;2023-06-19T04:54:37;3.85;;;3.22;;
10120;SDS011;5100;45.176;5.714;2023-06-19T04:57:03;6.53;;;3.40;;
10120;SDS011;5100;45.176;5.714;2023-06-19T04:59:29;3.95;;;3.55;;
10120;SDS011;5100;45.176;5.714;2023-06-19T05:01:56;3.70;;;3.37;;
10120;SDS011;5100;45.176;5.714;2023-06-19T05:04:23;3.67;;;3.28;;
10120;SDS011;5100;45.176;5.714;2023-06-19T05:06:49;4.62;;;3.50;;
10120;SDS011;5100;45.176;5.714;2023-06-19T05:09:19;3.30;;;3.03;;
10120;SDS011;5100;45.176;5.714;2023-06-19T05:11:45;4.60;;;3.17;;
10120;SDS011;5100;45.176;5.714;2023-06-19T05:14:11;3.37;;;3.08;;
10120;SDS011;5100;45.176;5.714;2023-06-19T05:16:39;6.95;;;3.60;;
10120;SDS011;5100;45.176;5.714;2023-06-19T05:19:05;3.45;;;3.25;;
10120;SDS011;5100;45.176;5.714;2023-06-19T05:21:31;3.72;;;3.35;;
10120;SDS011;5100;45.176;5.714;2023-06-19T05:23:57;3.22;;;2.97;;
10120;SDS011;5100;45.176;5.714;2023-06-19T05:26:23;3.45;;;3.15;;
10120;SDS011;5100;45.176;5.714;2023-06-19T05:28:51;4.47;;;3.47;;
10120;SDS011;5100;45.176;5.714;2023-06-19T05:31:17;3.50;;;3.20;;
10120;SDS011;5100;45.176;5.714;2023-06-19T05:33:44;3.78;;;3.10;;
10120;SDS011;5100;45.176;5.714;2023-06-19T05:36:10;5.25;;;3.50;;
10120;SDS011;5100;45.176;5.714;2023-06-19T05:38:36;4.30;;;3.55;;
10120;SDS011;5100;45.176;5.714;2023-06-19T05:41:02;3.90;;;3.50;;
10120;SDS011;5100;45.176;5.714;2023-06-19T05:43:28;4.03;;;3.72;;
10120;SDS011;5100;45.176;5.714;2023-06-19T05:45:55;3.95;;;3.33;;
10120;SDS011;5100;45.176;5.714;2023-06-19T05:48:21;5.15;;;3.65;;
10120;SDS011;5100;45.176;5.714;2023-06-19T05:50:47;4.07;;;3.67;;
10120;SDS011;5100;45.176;5.714;2023-06-19T05:53:13;4.18;;;3.12;;
10120;SDS011;5100;45.176;5.714;2023-06-19T05:55:39;4.12;;;3.53;;
10120;SDS011;5100;45.176;5.714;2023-06-19T05:58:05;5.85;;;3.22;;
10120;SDS011;5100;45.176;5.714;2023-06-19T06:00:32;4.35;;;3.78;;
10120;SDS011;5100;45.176;5.714;2023-06-19T06:02:58;3.12;;;2.83;;
10120;SDS011;5100;45.176;5.714;2023-06-19T06:05:27;5.80;;;3.28;;
10120;SDS011;5100;45.176;5.714;2023-06-19T06:07:54;5.37;;;3.53;;
10120;SDS011;5100;45.176;5.714;2023-06-19T06:10:21;3.40;;;3.08;;
10120;SDS011;5100;45.176;5.714;2023-06-19T06:12:48;7.87;;;3.42;;
10120;SDS011;5100;45.176;5.714;2023-06-19T06:15:14;5.12;;;3.30;;
10120;SDS011;5100;45.176;5.714;2023-06-19T06:17:41;4.72;;;3.17;;
10120;SDS011;5100;45.176;5.714;2023-06-19T06:20:08;5.15;;;3.50;;
10120;SDS011;5100;45.176;5.714;2023-06-19T06:22:36;4.12;;;3.37;;
10120;SDS011;5100;45.176;5.714;2023-06-19T06:25:06;4.37;;;3.42;;
10120;SDS011;5100;45.176;5.714;2023-06-19T06:27:33;6.37;;;3.15;;
10120;SDS011;5100;45.176;5.714;2023-06-19T06:29:59;3.75;;;3.40;;
10120;SDS011;5100;45.176;5.714;2023-06-19T06:32:26;3.85;;;3.55;;
10120;SDS011;5100;45.176;5.714;2023-06-19T06:34:54;4.10;;;3.67;;
10120;SDS011;5100;45.176;5.714;2023-06-19T06:37:20;6.68;;;3.60;;
10120;SDS011;5100;45.176;5.714;2023-06-19T06:39:48;5.37;;;3.80;;
10120;SDS011;5100;45.176;5.714;2023-06-19T06:42:15;4.57;;;3.47;;
10120;SDS011;5100;45.176;5.714;2023-06-19T06:44:42;4.47;;;3.53;;
10120;SDS011;5100;45.176;5.714;2023-06-19T06:47:09;5.85;;;3.30;;
10120;SDS011;5100;45.176;5.714;2023-06-19T06:49:35;4.62;;;3.50;;
10120;SDS011;5100;45.176;5.714;2023-06-19T06:52:04;6.05;;;3.30;;
10120;SDS011;5100;45.176;5.714;2023-06-19T06:54:31;8.55;;;4.05;;
10120;SDS011;5100;45.176;5.714;2023-06-19T06:56:57;5.37;;;3.35;;
10120;SDS011;5100;45.176;5.714;2023-06-19T06:59:25;4.53;;;3.37;;
10120;SDS011;5100;45.176;5.714;2023-06-19T07:01:53;9.57;;;4.00;;
10120;SDS011;5100;45.176;5.714;2023-06-19T07:04:20;3.87;;;3.47;;
10120;SDS011;5100;45.176;5.714;2023-06-19T07:06:46;5.22;;;3.58;;
10120;SDS011;5100;45.176;5.714;2023-06-19T07:09:12;4.78;;;3.70;;
10120;SDS011;5100;45.176;5.714;2023-06-19T07:11:39;4.93;;;3.65;;
10120;SDS011;5100;45.176;5.714;2023-06-19T07:14:05;4.03;;;3.28;;
10120;SDS011;5100;45.176;5.714;2023-06-19T07:16:31;6.65;;;3.40;;
10120;SDS011;5100;45.176;5.714;2023-06-19T07:18:57;4.57;;;3.62;;
10120;SDS011;5100;45.176;5.714;2023-06-19T07:21:23;3.62;;;3.12;;
10120;SDS011;5100;45.176;5.714;2023-06-19T07:23:50;5.40;;;3.97;;
10120;SDS011;5100;45.176;5.714;2023-06-19T07:26:16;6.22;;;3.95;;
10120;SDS011;5100;45.176;5.714;2023-06-19T07:28:42;7.30;;;3.62;;
10120;SDS011;5100;45.176;5.714;2023-06-19T07:31:08;5.57;;;3.85;;
10120;SDS011;5100;45.176;5.714;2023-06-19T07:33:34;12.32;;;3.92;;
10120;SDS011;5100;45.176;5.714;2023-06-19T07:36:01;5.82;;;3.35;;
10120;SDS011;5100;45.176;5.714;2023-06-19T07:38:30;5.53;;;3.60;;
10120;SDS011;5100;45.176;5.714;2023-06-19T07:40:56;5.45;;;3.45;;
10120;SDS011;5100;45.176;5.714;2023-06-19T07:43:22;6.28;;;3.22;;
10120;SDS011;5100;45.176;5.714;2023-06-19T07:45:48;5.20;;;3.53;;
10120;SDS011;5100;45.176;5.714;2023-06-19T07:48:15;5.30;;;3.55;;
10120;SDS011;5100;45.176;5.714;2023-06-19T07:50:41;7.43;;;3.92;;
10120;SDS011;5100;45.176;5.714;2023-06-19T07:53:08;6.70;;;3.72;;
10120;SDS011;5100;45.176;5.714;2023-06-19T07:55:34;4.15;;;3.33;;
10120;SDS011;5100;45.176;5.714;2023-06-19T07:58:00;3.92;;;3.50;;
10120;SDS011;5100;45.176;5.714;2023-06-19T08:00:27;4.10;;;3.47;;
10120;SDS011;5100;45.176;5.714;2023-06-19T08:02:53;7.03;;;3.45;;
10120;SDS011;5100;45.176;5.714;2023-06-19T08:05:19;4.40;;;4.00;;
10120;SDS011;5100;45.176;5.714;2023-06-19T08:07:45;3.60;;;3.30;;
10120;SDS011;5100;45.176;5.714;2023-06-19T08:10:11;6.50;;;3.47;;
10120;SDS011;5100;45.176;5.714;2023-06-19T08:12:37;4.68;;;3.47;;
10120;SDS011;5100;45.176;5.714;2023-06-19T08:15:03;6.28;;;3.40;;
10120;SDS011;5100;45.176;5.714;2023-06-19T08:17:30;8.38;;;3.35;;
10120;SDS011;5100;45.176;5.714;2023-06-19T08:19:56;3.70;;;3.37;;
10120;SDS011;5100;45.176;5.714;2023-06-19T08:22:22;5.22;;;3.53;;
10120;SDS011;5100;45.176;5.714;2023-06-19T08:24:50;5.78;;;3.95;;
10120;SDS011;5100;45.176;5.714;2023-06-19T08:27:16;4.55;;;3.58;;
10120;SDS011;5100;45.176;5.714;2023-06-19T08:29:42;3.90;;;3.50;;
10120;SDS011;5100;45.176;5.714;2023-06-19T08:32:09;4.03;;;3.30;;
10120;SDS011;5100;45.176;5.714;2023-06-19T08:34:35;4.00;;;3.28;;
10120;SDS011;5100;45.176;5.714;2023-06-19T08:37:02;6.18;;;3.42;;
10120;SDS011;5100;45.176;5.714;2023-06-19T08:39:28;7.00;;;3.75;;
10120;SDS011;5100;45.176;5.714;2023-06-19T08:41:54;7.93;;;3.97;;
10120;SDS011;5100;45.176;5.714;2023-06-19T08:44:20;3.55;;;3.22;;
10120;SDS011;5100;45.176;5.714;2023-06-19T08:46:46;5.50;;;3.20;;
10120;SDS011;5100;45.176;5.714;2023-06-19T08:49:12;6.05;;;3.62;;
10120;SDS011;5100;45.176;5.714;2023-06-19T08:51:39;8.52;;;4.15;;
10120;SDS011;5100;45.176;5.714;2023-06-19T08:54:06;5.22;;;3.30;;
10120;SDS011;5100;45.176;5.714;2023-06-19T08:56:34;3.92;;;3.53;;
10120;SDS011;5100;45.176;5.714;2023-06-19T08:59:12;4.00;;;3.60;;
10120;SDS011;5100;45.176;5.714;2023-06-19T09:01:39;5.95;;;3.85;;
10120;SDS011;5100;45.176;5.714;2023-06-19T09:04:14;5.20;;;3.80;;
10120;SDS011;5100;45.176;5.714;2023-06-19T09:06:54;4.32;;;3.92;;
10120;SDS011;5100;45.176;5.714;2023-06-19T09:09:31;5.82;;;3.78;;
10120;SDS011;5100;45.176;5.714;2023-06-19T09:12:02;4.60;;;3.33;;
10120;SDS011;5100;45.176;5.714;2023-06-19T09:14:38;4.45;;;3.92;;
10120;SDS011;5100;45.176;5.714;2023-06-19T09:17:07;6.25;;;3.75;;
10120;SDS011;5100;45.176;5.714;2023-06-19T09:19:36;6.40;;;3.87;;
10120;SDS011;5100;45.176;5.714;2023-06-19T09:22:02;4.57;;;3.40;;
10120;SDS011;5100;45.176;5.714;2023-06-19T09:24:40;5.10;;;4.12;;
10120;SDS011;5100;45.176;5.714;2023-06-19T09:27:10;5.93;;;4.03;;
10120;SDS011;5100;45.176;5.714;2023-06-19T09:29:39;4.75;;;4.22;;
10120;SDS011;5100;45.176;5.714;2023-06-19T09:32:18;4.03;;;3.55;;
10120;SDS011;5100;45.176;5.714;2023-06-19T09:34:50;6.30;;;4.22;;
10120;SDS011;5100;45.176;5.714;2023-06-19T09:37:25;5.28;;;4.28;;
10120;SDS011;5100;45.176;5.714;2023-06-19T09:39:53;4.32;;;3.90;;
10120;SDS011;5100;45.176;5.714;2023-06-19T09:42:29;7.00;;;4.57;;
10120;SDS011;5100;45.176;5.714;2023-06-19T09:44:58;6.15;;;4.80;;
10120;SDS011;5100;45.176;5.714;2023-06-19T09:47:36;4.70;;;4.03;;
10120;SDS011;5100;45.176;5.714;2023-06-19T09:50:13;6.03;;;4.30;;
10120;SDS011;5100;45.176;5.714;2023-06-19T09:52:43;4.25;;;3.90;;
10120;SDS011;5100;45.176;5.714;2023-06-19T09:55:10;5.15;;;4.45;;
10120;SDS011;5100;45.176;5.714;2023-06-19T09:57:40;5.82;;;4.32;;
10120;SDS011;5100;45.176;5.714;2023-06-19T10:00:08;5.43;;;4.93;;
10120;SDS011;5100;45.176;5.714;2023-06-19T10:02:40;5.03;;;4.60;;
10120;SDS011;5100;45.176;5.714;2023-06-19T10:05:07;5.18;;;4.68;;
10120;SDS011;5100;45.176;5.714;2023-06-19T10:07:37;5.30;;;4.80;;
10120;SDS011;5100;45.176;5.714;2023-06-19T10:10:06;5.18;;;4.28;;
10120;SDS011;5100;45.176;5.714;2023-06-19T10:12:35;5.40;;;4.40;;
10120;SDS011;5100;45.176;5.714;2023-06-19T10:15:15;4.80;;;4.32;;
10120;SDS011;5100;45.176;5.714;2023-06-19T10:18:05;4.90;;;4.50;;
10120;SDS011;5100;45.176;5.714;2023-06-19T10:20:36;4.70;;;4.20;;
10120;SDS011;5100;45.176;5.714;2023-06-19T10:23:14;6.75;;;4.82;;
10120;SDS011;5100;45.176;5.714;2023-06-19T10:25:44;5.03;;;4.50;;
10120;SDS011;5100;45.176;5.714;2023-06-19T10:28:18;5.47;;;4.97;;
10120;SDS011;5100;45.176;5.714;2023-06-19T10:30:53;5.20;;;4.70;;
10120;SDS011;5100;45.176;5.714;2023-06-19T10:33:20;4.85;;;4.35;;
10120;SDS011;5100;45.176;5.714;2023-06-19T10:35:49;7.70;;;5.57;;
10120;SDS011;5100;45.176;5.714;2023-06-19T10:38:15;5.37;;;4.87;;
10120;SDS011;5100;45.176;5.714;2023-06-19T10:40:42;4.85;;;4.45;;
10120;SDS011;5100;45.176;5.714;2023-06-19T10:43:10;8.55;;;4.62;;
10120;SDS011;5100;45.176;5.714;2023-06-19T10:45:36;4.90;;;4.50;;
10120;SDS011;5100;45.176;5.714;2023-06-19T10:48:03;5.22;;;4.72;;
10120;SDS011;5100;45.176;5.714;2023-06-19T10:50:41;6.90;;;5.07;;
10120;SDS011;5100;45.176;5.714;2023-06-19T10:53:08;4.80;;;4.40;;
10120;SDS011;5100;45.176;5.714;2023-06-19T10:55:34;5.62;;;5.12;;
10120;SDS011;5100;45.176;5.714;2023-06-19T10:58:00;5.72;;;4.55;;
10120;SDS011;5100;45.176;5.714;2023-06-19T11:00:30;6.10;;;4.60;;
10120;SDS011;5100;45.176;5.714;2023-06-19T11:02:59;8.70;;;4.97;;
10120;SDS011;5100;45.176;5.714;2023-06-19T11:05:26;5.30;;;4.80;;
10120;SDS011;5100;45.176;5.714;2023-06-19T11:07:58;5.28;;;4.78;;
10120;SDS011;5100;45.176;5.714;2023-06-19T11:10:27;5.78;;;4.82;;
10120;SDS011;5100;45.176;5.714;2023-06-19T11:12:57;5.12;;;4.62;;
10120;SDS011;5100;45.176;5.714;2023-06-19T11:15:30;6.30;;;5.70;;
10120;SDS011;5100;45.176;5.714;2023-06-19T11:17:58;5.60;;;4.97;;
10120;SDS011;5100;45.176;5.714;2023-06-19T11:20:24;6.62;;;5.20;;
10120;SDS011;5100;45.176;5.714;2023-06-19T11:22:57;6.85;;;5.60;;
10120;SDS011;5100;45.176;5.714;2023-06-19T11:25:35;6.55;;;4.85;;
10120;SDS011;5100;45.176;5.714;2023-06-19T11:28:03;7.80;;;4.93;;
10120;SDS011;5100;45.176;5.714;2023-06-19T11:30:37;5.60;;;4.70;;
10120;SDS011;5100;45.176;5.714;2023-06-19T11:33:03;4.37;;;3.97;;
10120;SDS011;5100;45.176;5.714;2023-06-19T11:35:32;4.45;;;4.05;;
10120;SDS011;5100;45.176;5.714;2023-06-19T11:38:02;4.15;;;3.80;;
10120;SDS011;5100;45.176;5.714;2023-06-19T11:40:28;4.50;;;4.05;;
10120;SDS011;5100;45.176;5.714;2023-06-19T11:43:05;4.32;;;3.67;;
10120;SDS011;5100;45.176;5.714;2023-06-19T11:45:31;5.47;;;4.05;;
10120;SDS011;5100;45.176;5.714;2023-06-19T11:47:58;4.20;;;3.80;;
10120;SDS011;5100;45.176;5.714;2023-06-19T11:50:28;5.25;;;3.62;;
10120;SDS011;5100;45.176;5.714;2023-06-19T11:52:54;4.50;;;3.65;;
10120;SDS011;5100;45.176;5.714;2023-06-19T11:55:20;4.87;;;4.07;;
10120;SDS011;5100;45.176;5.714;2023-06-19T11:57:46;4.32;;;3.97;;
10120;SDS011;5100;45.176;5.714;2023-06-19T12:00:13;4.00;;;3.67;;
10120;SDS011;5100;45.176;5.714;2023-06-19T12:02:40;4.00;;;3.67;;
10120;SDS011;5100;45.176;5.714;2023-06-19T12:05:07;3.70;;;3.40;;
10120;SDS011;5100;45.176;5.714;2023-06-19T12:07:33;4.70;;;4.20;;
10120;SDS011;5100;45.176;5.714;2023-06-19T12:09:59;4.07;;;3.67;;
10120;SDS011;5100;45.176;5.714;2023-06-19T12:12:25;3.90;;;3.30;;
10120;SDS011;5100;45.176;5.714;2023-06-19T12:14:51;4.30;;;3.90;;
10120;SDS011;5100;45.176;5.714;2023-06-19T12:17:17;6.87;;;3.78;;
10120;SDS011;5100;45.176;5.714;2023-06-19T12:19:43;4.00;;;3.70;;
10120;SDS011;5100;45.176;5.714;2023-06-19T12:22:09;3.58;;;3.35;;
10120;SDS011;5100;45.176;5.714;2023-06-19T12:24:35;4.18;;;3.80;;
10120;SDS011;5100;45.176;5.714;2023-06-19T12:27:01;5.30;;;3.47;;
10120;SDS011;5100;45.176;5.714;2023-06-19T12:29:27;4.65;;;3.80;;
10120;SDS011;5100;45.176;5.714;2023-06-19T12:31:58;3.92;;;3.62;;
10120;SDS011;5100;45.176;5.714;2023-06-19T12:34:30;4.20;;;3.78;;
10120;SDS011;5100;45.176;5.714;2023-06-19T12:36:57;3.83;;;3.53;;
10120;SDS011;5100;45.176;5.714;2023-06-19T12:39:23;5.75;;;4.00;;
10120;SDS011;5100;45.176;5.714;2023-06-19T12:41:50;3.97;;;3.62;;
10120;SDS011;5100;45.176;5.714;2023-06-19T12:44:16;4.12;;;3.72;;
10120;SDS011;5100;45.176;5.714;2023-06-19T12:46:42;5.18;;;3.70;;
10120;SDS011;5100;45.176;5.714;2023-06-19T12:49:08;4.00;;;3.60;;
10120;SDS011;5100;45.176;5.714;2023-06-19T12:51:35;4.45;;;3.42;;
10120;SDS011;5100;45.176;5.714;2023-06-19T12:54:01;4.37;;;4.00;;
10120;SDS011;5100;45.176;5.714;2023-06-19T12:56:26;3.90;;;3.60;;
10120;SDS011;5100;45.176;5.714;2023-06-19T12:58:53;4.32;;;3.60;;
10120;SDS011;5100;45.176;5.714;2023-06-19T13:01:19;4.10;;;3.70;;
10120;SDS011;5100;45.176;5.714;2023-06-19T13:03:45;4.15;;;3.78;;
10120;SDS011;5100;45.176;5.714;2023-06-19T13:06:11;4.15;;;3.75;;
10120;SDS011;5100;45.176;5.714;2023-06-19T13:08:37;6.10;;;3.78;;
10120;SDS011;5100;45.176;5.714;2023-06-19T13:11:03;4.82;;;3.90;;
10120;SDS011;5100;45.176;5.714;2023-06-19T13:13:29;4.55;;;4.10;;
10120;SDS011;5100;45.176;5.714;2023-06-19T13:15:56;5.85;;;3.47;;
10120;SDS011;5100;45.176;5.714;2023-06-19T13:18:22;7.07;;;4.55;;
10120;SDS011;5100;45.176;5.714;2023-06-19T13:20:48;4.40;;;3.62;;
10120;SDS011;5100;45.176;5.714;2023-06-19T13:23:15;5.75;;;4.03;;
10120;SDS011;5100;45.176;5.714;2023-06-19T13:25:40;4.15;;;3.80;;
10120;SDS011;5100;45.176;5.714;2023-06-19T13:28:07;4.55;;;3.60;;
10120;SDS011;5100;45.176;5.714;2023-06-19T13:30:33;5.78;;;3.92;;
10120;SDS011;5100;45.176;5.714;2023-06-19T13:32:59;3.60;;;3.30;;
10120;SDS011;5100;45.176;5.714;2023-06-19T13:35:25;3.85;;;3.55;;
10120;SDS011;5100;45.176;5.714;2023-06-19T13:37:51;3.80;;;3.47;;
10120;SDS011;5100;45.176;5.714;2023-06-19T13:40:17;3.75;;;3.45;;
10120;SDS011;5100;45.176;5.714;2023-06-19T13:42:43;3.78;;;3.30;;
10120;SDS011;5100;45.176;5.714;2023-06-19T13:45:09;4.35;;;3.83;;
10120;SDS011;5100;45.176;5.714;2023-06-19T13:47:36;6.43;;;3.67;;
10120;SDS011;5100;45.176;5.714;2023-06-19T13:50:02;5.78;;;3.83;;
10120;SDS011;5100;45.176;5.714;2023-06-19T13:52:28;4.43;;;3.62;;
10120;SDS011;5100;45.176;5.714;2023-06-19T13:54:54;5.25;;;3.45;;
10120;SDS011;5100;45.176;5.714;2023-06-19T13:57:20;5.55;;;3.37;;
10120;SDS011;5100;45.176;5.714;2023-06-19T13:59:46;7.15;;;4.03;;
10120;SDS011;5100;45.176;5.714;2023-06-19T14:02:14;8.00;;;3.67;;
10120;SDS011;5100;45.176;5.714;2023-06-19T14:04:40;8.50;;;3.90;;
10120;SDS011;5100;45.176;5.714;2023-06-19T14:07:06;4.50;;;3.50;;
10120;SDS011;5100;45.176;5.714;2023-06-19T14:09:32;3.75;;;3.45;;
10120;SDS011;5100;45.176;5.714;2023-06-19T14:11:58;4.12;;;3.67;;
10120;SDS011;5100;45.176;5.714;2023-06-19T14:14:25;8.82;;;3.70;;
10120;SDS011;5100;45.176;5.714;2023-06-19T14:16:51;7.65;;;3.95;;
10120;SDS011;5100;45.176;5.714;2023-06-19T14:19:17;5.00;;;3.70;;
10120;SDS011;5100;45.176;5.714;2023-06-19T14:21:43;5.12;;;3.30;;
10120;SDS011;5100;45.176;5.714;2023-06-19T14:24:09;9.23;;;3.62;;
10120;SDS011;5100;45.176;5.714;2023-06-19T14:26:35;5.37;;;4.10;;
10120;SDS011;5100;45.176;5.714;2023-06-19T14:29:01;6.18;;;4.37;;
10120;SDS011;5100;45.176;5.714;2023-06-19T14:31:28;3.72;;;3.42;;
10120;SDS011;5100;45.176;5.714;2023-06-19T14:33:54;3.75;;;3.45;;
10120;SDS011;5100;45.176;5.714;2023-06-19T14:36:20;3.83;;;3.47;;
10120;SDS011;5100;45.176;5.714;2023-06-19T14:38:46;4.97;;;3.47;;
10120;SDS011;5100;45.176;5.714;2023-06-19T14:41:12;10.45;;;3.58;;
10120;SDS011;5100;45.176;5.714;2023-06-19T14:43:38;3.83;;;3.50;;
10120;SDS011;5100;45.176;5.714;2023-06-19T14:46:04;4.35;;;3.15;;
10120;SDS011;5100;45.176;5.714;2023-06-19T14:48:31;4.57;;;3.60;;
10120;SDS011;5100;45.176;5.714;2023-06-19T14:50:57;4.72;;;3.70;;
10120;SDS011;5100;45.176;5.714;2023-06-19T14:53:23;3.20;;;3.00;;
10120;SDS011;5100;45.176;5.714;2023-06-19T14:55:49;4.18;;;2.80;;
10120;SDS011;5100;45.176;5.714;2023-06-19T14:58:15;4.70;;;3.53;;
10120;SDS011;5100;45.176;5.714;2023-06-19T15:00:41;3.45;;;3.15;;
10120;SDS011;5100;45.176;5.714;2023-06-19T15:03:08;3.45;;;3.15;;
10120;SDS011;5100;45.176;5.714;2023-06-19T15:05:33;3.70;;;3.37;;